Time;durP1;ratioP1;P1;durP2;ratioP2;P2;SDS_P1;SDS_P2;PMS_P1;PMS_P2;Temp;Humidity;BMP_temperature;BMP_pressure;BME280_temperature;BME280_humidity;BME280_pressure;Samples;Min_cycle;Max_cycle;Signal;HPM_P1;HPM_P2
2022/02/03 00:00:47;;;;;;;38.88;18.48;;;7.30;99.90;;;;;;5094917;28;20043;-70
2022/02/03 00:03:25;;;;;;;39.67;17.83;;;7.40;99.90;;;;;;5095823;28;20067;-70
2022/02/03 00:05:58;;;;;;;47.85;19.17;;;7.40;99.90;;;;;;5096086;28;20082;-70
2022/02/03 00:08:51;;;;;;;45.20;19.63;;;7.30;99.90;;;;;;5096410;28;20383;-70
2022/02/03 00:11:30;;;;;;;43.63;19.25;;;7.50;99.90;;;;;;5094617;28;20270;-70
2022/02/03 00:16:57;;;;;;;51.10;21.17;;;7.50;99.90;;;;;;5094635;28;20490;-70
2022/02/03 00:22:32;;;;;;;56.22;22.83;;;7.50;99.90;;;;;;5095716;28;20044;-70
2022/02/03 00:30:19;;;;;;;66.15;25.63;;;7.70;99.90;;;;;;5094468;28;20066;-70
2022/02/03 00:33:11;;;;;;;75.43;28.42;;;7.60;99.90;;;;;;5095726;28;20369;-70
2022/02/03 00:49:29;;;;;;;69.53;28.30;;;7.70;99.90;;;;;;5095696;28;20084;-70
2022/02/03 00:51:58;;;;;;;92.97;30.75;;;7.70;99.90;;;;;;5093746;28;20046;-70
2022/02/03 00:54:25;;;;;;;78.85;27.67;;;7.70;99.90;;;;;;5093839;28;20522;-70
2022/02/03 00:56:57;;;;;;;70.57;27.30;;;7.70;99.90;;;;;;5094840;28;20396;-70
2022/02/03 00:59:30;;;;;;;76.38;26.77;;;7.70;99.90;;;;;;5094614;28;20059;-70
2022/02/03 01:01:59;;;;;;;61.60;24.15;;;7.80;99.90;;;;;;5095238;28;20028;-70
2022/02/03 01:04:29;;;;;;;68.53;26.90;;;7.80;99.90;;;;;;5094789;28;20028;-70
2022/02/03 01:06:57;;;;;;;65.15;26.65;;;7.80;99.90;;;;;;5094407;28;20464;-70
2022/02/03 01:09:27;;;;;;;60.58;23.73;;;7.80;99.90;;;;;;5093186;28;20051;-70
2022/02/03 01:12:25;;;;;;;60.80;26.05;;;7.80;99.90;;;;;;5076810;28;20050;-70
2022/02/03 01:14:57;;;;;;;64.53;25.40;;;7.90;99.90;;;;;;5093721;28;20134;-70
2022/02/03 01:17:43;;;;;;;59.00;24.48;;;7.90;99.90;;;;;;5094063;28;20044;-70
2022/02/03 01:20:45;;;;;;;61.10;27.35;;;7.90;99.90;;;;;;5094672;28;20087;-70
2022/02/03 01:44:56;;;;;;;49.13;20.52;;;8.20;99.90;;;;;;5032614;28;20049;-70
2022/02/03 01:47:37;;;;;;;51.05;21.50;;;8.20;99.90;;;;;;5032822;28;20068;-70
2022/02/03 01:52:43;;;;;;;56.05;23.25;;;8.20;99.90;;;;;;5033757;28;20049;-70
2022/02/03 01:55:15;;;;;;;54.28;24.00;;;8.20;99.90;;;;;;5032312;28;20472;-70
2022/02/03 01:57:42;;;;;;;52.72;22.63;;;8.30;99.90;;;;;;5015048;28;20038;-70
2022/02/03 02:00:12;;;;;;;47.78;20.60;;;8.20;99.90;;;;;;5032052;28;20119;-70
2022/02/03 02:02:45;;;;;;;59.25;23.20;;;8.30;99.90;;;;;;5032306;28;20037;-70
2022/02/03 02:05:35;;;;;;;64.80;24.30;;;8.40;99.90;;;;;;5032319;28;20508;-70
2022/02/03 02:08:33;;;;;;;61.90;25.65;;;8.40;99.90;;;;;;5031915;28;20049;-70
2022/02/03 02:11:41;;;;;;;70.75;27.77;;;8.30;99.90;;;;;;5018027;28;20493;-70
2022/02/03 02:17:46;;;;;;;88.45;32.88;;;8.40;99.90;;;;;;5032180;28;20045;-70
2022/02/03 02:36:52;;;;;;;75.95;31.45;;;8.40;99.90;;;;;;5032943;28;20061;-70
2022/02/03 02:40:00;;;;;;;77.50;31.55;;;8.40;99.90;;;;;;5032587;28;20128;-70
2022/02/03 02:42:35;;;;;;;82.80;34.03;;;8.30;99.90;;;;;;5032377;28;20396;-70
2022/02/03 02:45:06;;;;;;;84.68;32.95;;;8.40;99.90;;;;;;5033068;28;20041;-70
2022/02/03 02:47:56;;;;;;;83.45;33.78;;;8.40;99.90;;;;;;5031177;28;20045;-70
2022/02/03 02:50:42;;;;;;;90.30;35.78;;;8.40;99.90;;;;;;5031761;28;20058;-70
2022/02/03 02:53:20;;;;;;;77.68;33.97;;;8.40;99.90;;;;;;5032952;28;20060;-70
2022/02/03 02:56:22;;;;;;;84.32;34.15;;;8.40;99.90;;;;;;5032865;28;20041;-70
2022/02/03 03:28:59;;;;;;;86.05;34.53;;;8.40;99.90;;;;;;5032006;28;20045;-70
2022/02/03 03:30:20;;;;;;;73.25;33.03;;;8.40;99.90;;;;;;5035390;28;20136;-70
2022/02/03 03:32:53;;;;;;;75.10;31.88;;;8.40;99.90;;;;;;5031316;28;20484;-70
2022/02/03 03:38:33;;;;;;;77.80;34.55;;;8.40;99.90;;;;;;4958005;28;20054;-70
2022/02/03 03:41:00;;;;;;;76.50;31.88;;;8.40;99.90;;;;;;4975338;28;20162;-70
2022/02/03 03:44:07;;;;;;;68.13;31.30;;;8.40;99.90;;;;;;5007141;28;20049;-70
2022/02/03 03:46:35;;;;;;;81.60;33.10;;;8.40;99.90;;;;;;5018204;28;20504;-70
2022/02/03 03:49:14;;;;;;;71.25;31.10;;;8.30;99.90;;;;;;5033762;28;20056;-70
2022/02/03 03:51:58;;;;;;;78.05;33.65;;;8.30;99.90;;;;;;5034770;28;20050;-70
2022/02/03 03:57:16;;;;;;;66.97;31.23;;;8.30;99.90;;;;;;5034531;28;19943;-70
2022/02/03 04:32:19;;;;;;;72.30;35.42;;;8.30;99.90;;;;;;5035345;28;20041;-70
2022/02/03 05:03:44;;;;;;;57.83;30.58;;;8.10;99.90;;;;;;5033729;28;19917;-70
2022/02/03 05:07:10;;;;;;;54.35;30.25;;;8.20;99.90;;;;;;5033264;28;20076;-71
2022/02/03 05:13:26;;;;;;;54.42;28.85;;;8.20;99.90;;;;;;5033125;28;20057;-71
2022/02/03 05:19:43;;;;;;;52.95;29.90;;;8.10;99.90;;;;;;5033489;28;20128;-71
2022/02/03 05:45:58;;;;;;;65.05;33.25;;;8.30;99.90;;;;;;5002427;28;20120;-71
2022/02/03 05:48:52;;;;;;;68.32;34.80;;;8.30;99.90;;;;;;5032118;28;20543;-71
2022/02/03 06:05:46;;;;;;;79.85;40.05;;;8.30;99.90;;;;;;4956472;28;20068;-72
2022/02/03 06:08:29;;;;;;;86.43;40.95;;;8.30;99.90;;;;;;4956020;28;20473;-72
2022/02/03 06:29:16;;;;;;;93.90;46.10;;;8.30;99.90;;;;;;5031003;28;20045;-72
2022/02/03 06:31:44;;;;;;;100.90;44.97;;;8.30;99.90;;;;;;5031968;28;20064;-72
2022/02/03 06:34:13;;;;;;;100.70;45.47;;;8.30;99.90;;;;;;5031837;28;20059;-71
2022/02/03 06:36:40;;;;;;;103.22;44.97;;;8.30;99.90;;;;;;5015341;28;20477;-72
2022/02/03 06:39:16;;;;;;;104.82;46.95;;;8.30;99.90;;;;;;5014923;28;20042;-72
2022/02/03 06:41:43;;;;;;;104.35;46.40;;;8.30;99.90;;;;;;5031822;28;20125;-72
2022/02/03 06:44:09;;;;;;;102.00;46.90;;;8.40;99.90;;;;;;5032169;28;20489;-72
2022/02/03 06:46:37;;;;;;;106.72;47.85;;;8.30;99.90;;;;;;5032128;28;20052;-71
2022/02/03 06:49:27;;;;;;;110.93;48.33;;;8.30;99.90;;;;;;5032167;28;20084;-71
2022/02/03 06:52:01;;;;;;;110.22;48.17;;;8.20;99.90;;;;;;5032959;28;20424;-72
2022/02/03 06:54:38;;;;;;;113.38;49.58;;;8.20;99.90;;;;;;5032050;28;20041;-73
2022/02/03 06:57:10;;;;;;;105.22;48.50;;;8.30;99.90;;;;;;5015142;28;20038;-72
2022/02/03 07:00:17;;;;;;;120.00;50.47;;;8.30;99.90;;;;;;5034873;28;20189;-72
2022/02/03 07:02:31;;;;;;;109.88;48.65;;;8.20;99.90;;;;;;5031712;28;20049;-71
2022/02/03 07:04:57;;;;;;;109.93;48.78;;;8.30;99.90;;;;;;5035577;28;20559;-71
2022/02/03 07:07:24;;;;;;;112.07;50.83;;;8.20;99.90;;;;;;5018329;28;20394;-72
2022/02/03 07:09:52;;;;;;;102.57;47.70;;;8.20;99.90;;;;;;5036431;28;20435;-71
2022/02/03 07:12:19;;;;;;;108.22;51.08;;;8.30;99.90;;;;;;5036649;28;20069;-71
2022/02/03 07:14:45;;;;;;;107.28;47.20;;;8.30;99.90;;;;;;5036699;28;20042;-71
2022/02/03 07:17:11;;;;;;;100.93;46.25;;;8.20;99.90;;;;;;5034926;28;20551;-72
2022/02/03 07:19:43;;;;;;;104.18;48.15;;;8.30;99.90;;;;;;5034967;28;20498;-71
2022/02/03 07:22:09;;;;;;;112.65;46.10;;;8.40;99.90;;;;;;5035254;28;20072;-71
2022/02/03 07:24:34;;;;;;;97.50;46.30;;;8.30;99.90;;;;;;5036514;28;20472;-71
2022/02/03 07:27:00;;;;;;;86.80;43.15;;;8.30;99.90;;;;;;5036001;28;20501;-72
2022/02/03 07:29:26;;;;;;;92.18;45.40;;;8.30;99.90;;;;;;5034336;28;20080;-71
2022/02/03 07:31:51;;;;;;;79.32;40.40;;;8.30;99.90;;;;;;5034529;28;20489;-71
2022/02/03 07:34:18;;;;;;;77.78;39.67;;;8.30;99.90;;;;;;5035159;28;20045;-72
2022/02/03 07:36:45;;;;;;;76.18;39.33;;;8.20;99.90;;;;;;5034670;28;20552;-71
2022/02/03 07:39:11;;;;;;;83.70;40.03;;;8.30;99.90;;;;;;5035255;28;20045;-72
2022/02/03 07:41:37;;;;;;;83.32;38.90;;;8.20;99.90;;;;;;5034048;28;20049;-72
2022/02/03 07:44:04;;;;;;;73.95;37.97;;;8.30;99.90;;;;;;5035188;28;20424;-72
2022/02/03 07:46:30;;;;;;;78.65;36.53;;;8.30;99.90;;;;;;5036203;28;20103;-72
2022/02/03 07:48:59;;;;;;;81.22;38.28;;;8.20;99.90;;;;;;5033773;28;20053;-71
2022/02/03 07:51:25;;;;;;;76.15;38.10;;;8.20;99.90;;;;;;5034446;28;20045;-71
2022/02/03 07:53:51;;;;;;;75.00;37.15;;;8.30;99.90;;;;;;5034498;28;20049;-71
2022/02/03 07:56:17;;;;;;;68.50;35.42;;;8.10;99.90;;;;;;5035578;28;20044;-71
2022/02/03 07:58:42;;;;;;;86.63;38.10;;;8.10;99.90;;;;;;5033479;28;20057;-71
2022/02/03 08:01:08;;;;;;;74.20;36.55;;;8.10;99.90;;;;;;5035911;28;20049;-72
2022/02/03 08:03:36;;;;;;;74.45;39.97;;;8.10;99.90;;;;;;5034588;28;20045;-72
2022/02/03 08:06:06;;;;;;;67.70;35.45;;;8.10;99.90;;;;;;5034251;28;20052;-72
2022/02/03 08:08:37;;;;;;;74.40;37.55;;;8.10;99.90;;;;;;5033785;28;20045;-72
2022/02/03 08:11:08;;;;;;;80.90;36.33;;;8.20;99.90;;;;;;5033229;28;20103;-72
2022/02/03 08:13:38;;;;;;;70.10;36.75;;;8.10;99.90;;;;;;5034119;28;20053;-72
2022/02/03 08:16:12;;;;;;;67.85;36.35;;;8.20;99.90;;;;;;5035518;28;20040;-72
2022/02/03 08:18:45;;;;;;;65.88;34.75;;;8.10;99.90;;;;;;5033100;28;20489;-71
2022/02/03 08:21:13;;;;;;;66.20;34.33;;;8.10;99.90;;;;;;5034128;28;20048;-72
2022/02/03 08:23:55;;;;;;;61.17;33.35;;;8.20;99.90;;;;;;5033971;28;20445;-71
2022/02/03 08:31:39;;;;;;;53.22;29.30;;;8.20;99.90;;;;;;5033628;28;20053;-70
2022/02/03 08:34:04;;;;;;;61.40;29.08;;;8.10;99.90;;;;;;5033760;28;20120;-70
2022/02/03 08:36:34;;;;;;;57.55;29.20;;;8.10;99.90;;;;;;5033828;28;20206;-70
2022/02/03 08:39:05;;;;;;;52.90;28.33;;;8.10;99.90;;;;;;5032750;28;20508;-70
2022/02/03 08:41:31;;;;;;;50.92;26.48;;;8.20;99.90;;;;;;5033498;28;20061;-70
2022/02/03 08:43:56;;;;;;;49.13;26.73;;;8.10;99.90;;;;;;5032702;28;20104;-71
2022/02/03 08:46:25;;;;;;;46.05;25.20;;;8.20;99.90;;;;;;5033067;28;20041;-71
2022/02/03 08:48:51;;;;;;;43.95;26.27;;;8.20;99.90;;;;;;5032384;28;20439;-71
2022/02/03 08:51:17;;;;;;;47.03;25.67;;;8.10;99.90;;;;;;5034097;28;20087;-71
2022/02/03 08:53:48;;;;;;;52.42;25.83;;;8.10;99.90;;;;;;5032429;28;20048;-71
2022/02/03 08:56:25;;;;;;;42.70;25.80;;;8.20;99.90;;;;;;5034733;28;20048;-71
2022/02/03 09:34:30;;;;;;;32.72;18.50;;;8.20;99.90;;;;;;5032592;28;20056;-71
2022/02/03 09:37:05;;;;;;;32.13;17.77;;;8.10;99.90;;;;;;5032300;28;20046;-72
2022/02/03 10:02:15;;;;;;;25.10;14.82;;;8.30;99.90;;;;;;4955889;28;20074;-72
2022/02/03 10:04:49;;;;;;;27.20;14.10;;;8.30;99.90;;;;;;5008750;28;20033;-73
2022/02/03 10:07:25;;;;;;;21.52;14.05;;;8.30;99.90;;;;;;5032146;28;20045;-72
2022/02/03 10:09:55;;;;;;;28.15;14.07;;;8.20;99.90;;;;;;5033388;28;20092;-72
2022/02/03 10:12:32;;;;;;;25.25;14.48;;;8.30;99.90;;;;;;5033135;28;20408;-72
2022/02/03 10:14:58;;;;;;;22.40;14.68;;;8.30;99.90;;;;;;5032179;28;20037;-72
2022/02/03 10:17:40;;;;;;;30.85;15.25;;;8.20;99.90;;;;;;5032004;28;20041;-72
2022/02/03 10:20:10;;;;;;;31.35;15.65;;;8.30;99.90;;;;;;5031845;28;20041;-73
2022/02/03 10:22:59;;;;;;;24.08;15.18;;;8.30;99.90;;;;;;5032206;28;20040;-72
2022/02/03 10:25:33;;;;;;;28.95;16.17;;;8.40;99.90;;;;;;5031982;28;20087;-72
2022/02/03 10:28:04;;;;;;;26.73;16.27;;;8.40;99.90;;;;;;5031781;28;20049;-73
2022/02/03 10:30:36;;;;;;;27.33;16.75;;;8.30;99.90;;;;;;5031873;28;20037;-73
2022/02/03 10:33:03;;;;;;;25.58;16.48;;;8.30;99.90;;;;;;5033572;28;20096;-72
2022/02/03 10:35:58;;;;;;;28.10;16.30;;;8.30;99.90;;;;;;5037516;28;20045;-73
2022/02/03 10:41:19;;;;;;;31.80;16.65;;;8.30;99.90;;;;;;5035641;28;20056;-72
2022/02/03 10:49:22;;;;;;;31.23;18.23;;;8.30;99.90;;;;;;5035685;28;20074;-72
2022/02/03 10:54:52;;;;;;;27.00;16.30;;;8.30;99.90;;;;;;5036218;28;20049;-73
2022/02/03 11:00:41;;;;;;;27.02;16.88;;;8.40;99.90;;;;;;5035136;28;20048;-72
2022/02/03 11:03:23;;;;;;;28.00;17.77;;;8.40;99.90;;;;;;5023475;28;20047;-73
2022/02/03 11:08:25;;;;;;;27.65;18.15;;;8.40;99.90;;;;;;5035158;28;20041;-74
2022/02/03 11:10:58;;;;;;;27.45;16.38;;;8.40;99.90;;;;;;5023683;28;20069;-72
2022/02/03 11:13:30;;;;;;;24.17;16.37;;;8.40;99.90;;;;;;5017299;28;20029;-72
2022/02/03 11:15:59;;;;;;;27.05;17.17;;;8.40;99.90;;;;;;5034743;28;20050;-72
2022/02/03 11:18:25;;;;;;;24.75;17.55;;;8.40;99.90;;;;;;5033804;28;20115;-72
2022/02/03 11:20:51;;;;;;;29.42;16.23;;;8.40;99.90;;;;;;5034744;28;20100;-72
2022/02/03 11:23:33;;;;;;;28.33;15.80;;;8.40;99.90;;;;;;5034573;28;20156;-72
2022/02/03 11:34:43;;;;;;;28.80;17.27;;;8.50;99.90;;;;;;5035651;28;20049;-72
2022/02/03 11:40:34;;;;;;;28.00;16.80;;;8.50;99.90;;;;;;5034769;28;20409;-72
2022/02/03 12:16:25;;;;;;;21.38;15.48;;;8.50;99.90;;;;;;5032509;28;20080;-72
2022/02/03 12:21:40;;;;;;;24.52;14.77;;;8.40;99.90;;;;;;5014760;28;20049;-72
2022/02/03 12:25:24;;;;;;;20.55;13.77;;;8.40;99.90;;;;;;5014634;28;20042;-72
2022/02/03 12:28:11;;;;;;;19.35;13.80;;;8.40;99.90;;;;;;5001209;28;20054;-72
2022/02/03 12:30:24;;;;;;;21.65;13.40;;;8.40;99.90;;;;;;5006826;28;20122;-71
2022/02/03 12:38:37;;;;;;;24.02;12.55;;;8.40;99.90;;;;;;5033120;28;20045;-71
2022/02/03 12:41:08;;;;;;;;;;;8.40;99.90;;;;;;5035582;28;20037;-72
2022/02/03 12:43:37;;;;;;;17.38;10.93;;;8.40;99.90;;;;;;5035338;28;19917;-72
2022/02/03 12:46:06;;;;;;;17.98;11.48;;;8.40;99.90;;;;;;5035579;28;20037;-72
2022/02/03 12:48:34;;;;;;;19.17;10.88;;;8.40;99.90;;;;;;5034495;28;20038;-72
2022/02/03 12:51:01;;;;;;;21.08;11.65;;;8.40;99.90;;;;;;5034964;28;20037;-72
2022/02/03 12:53:36;;;;;;;17.20;11.05;;;8.40;99.90;;;;;;5033818;28;20091;-72
2022/02/03 12:56:06;;;;;;;19.58;11.88;;;8.40;99.90;;;;;;5033609;28;20041;-72
2022/02/03 12:58:38;;;;;;;18.08;11.48;;;8.30;99.90;;;;;;5033021;28;20042;-72
2022/02/03 13:01:15;;;;;;;15.85;11.35;;;8.40;99.90;;;;;;5034383;28;20420;-72
2022/02/03 13:03:48;;;;;;;17.55;11.43;;;8.40;99.90;;;;;;5033100;28;20443;-70
2022/02/03 13:06:17;;;;;;;17.10;11.00;;;8.40;99.90;;;;;;5034751;28;20049;-71
2022/02/03 13:08:49;;;;;;;23.67;10.35;;;8.40;99.90;;;;;;5034115;28;20048;-72
2022/02/03 13:14:01;;;;;;;17.75;10.88;;;8.40;99.90;;;;;;5034431;28;20041;-72
2022/02/03 13:16:27;;;;;;;20.70;11.25;;;8.50;99.90;;;;;;5034410;28;20053;-72
2022/02/03 13:19:07;;;;;;;17.73;11.45;;;8.40;99.90;;;;;;5033777;28;20042;-72
2022/02/03 13:26:57;;;;;;;69.80;15.35;;;8.40;99.90;;;;;;5032942;28;20061;-73
2022/02/03 13:29:43;;;;;;;16.60;10.13;;;8.40;99.90;;;;;;5034113;28;20041;-71
2022/02/03 13:32:13;;;;;;;15.73;10.23;;;8.40;99.90;;;;;;5034230;28;20037;-68
2022/02/03 13:34:53;;;;;;;18.15;10.57;;;8.40;99.90;;;;;;5032796;28;20132;-67
2022/02/03 13:37:29;;;;;;;13.90;9.55;;;8.40;99.90;;;;;;5032317;28;20048;-67
2022/02/03 13:40:10;;;;;;;16.17;10.52;;;8.40;99.90;;;;;;5033706;28;20433;-68
2022/02/03 13:42:38;;;;;;;15.45;9.82;;;8.50;99.90;;;;;;5033915;28;20099;-68
2022/02/03 13:45:09;;;;;;;14.77;10.52;;;8.40;99.90;;;;;;5033411;28;20081;-68
2022/02/03 13:47:36;;;;;;;10.75;8.30;;;8.50;99.90;;;;;;5033638;28;20052;-67
2022/02/03 13:50:24;;;;;;;16.80;10.43;;;8.50;99.90;;;;;;5033683;28;20046;-67
2022/02/03 14:15:11;;;;;;;10.35;7.32;;;8.60;99.90;;;;;;5013656;28;20453;-68
2022/02/03 14:28:05;;;;;;;13.52;8.77;;;8.30;99.90;;;;;;5012005;28;20045;-67
2022/02/03 14:30:31;;;;;;;11.82;8.07;;;8.30;99.90;;;;;;5014314;28;20048;-67
2022/02/03 14:32:59;;;;;;;11.30;8.63;;;8.30;99.90;;;;;;5013604;28;20116;-67
2022/02/03 14:35:25;;;;;;;12.13;8.52;;;8.30;99.90;;;;;;5013335;28;20559;-67
2022/02/03 14:38:11;;;;;;;14.43;9.02;;;8.30;99.90;;;;;;5011803;28;20041;-67
2022/02/03 14:41:07;;;;;;;11.52;8.68;;;8.20;99.90;;;;;;5027620;28;20073;-66
2022/02/03 14:43:22;;;;;;;12.45;8.30;;;8.20;99.90;;;;;;5031608;28;20037;-67
2022/02/03 14:45:48;;;;;;;12.43;8.90;;;8.10;99.90;;;;;;5033319;28;20461;-67
2022/02/03 14:48:15;;;;;;;13.23;9.32;;;8.10;99.90;;;;;;5033090;28;20103;-67
2022/02/03 14:50:43;;;;;;;13.25;8.80;;;8.10;99.90;;;;;;5033244;28;20033;-67
2022/02/03 14:53:15;;;;;;;12.45;8.68;;;8.00;99.90;;;;;;5032602;28;20034;-67
2022/02/03 14:58:28;;;;;;;15.77;9.57;;;8.10;99.90;;;;;;5032391;28;20408;-67
2022/02/03 15:00:56;;;;;;;12.32;8.82;;;8.00;99.90;;;;;;5033497;28;20073;-67
2022/02/03 15:03:24;;;;;;;12.60;8.07;;;8.00;99.90;;;;;;5032093;28;20064;-67
2022/02/03 15:05:54;;;;;;;10.68;8.23;;;8.00;99.90;;;;;;5033464;28;20042;-67
2022/02/03 15:08:23;;;;;;;11.52;8.57;;;8.00;99.90;;;;;;5032768;28;20103;-67
2022/02/03 15:11:03;;;;;;;9.70;7.40;;;8.00;99.90;;;;;;5031714;28;20044;-67
2022/02/03 15:13:40;;;;;;;10.77;7.25;;;8.00;99.90;;;;;;5015487;28;20465;-67
2022/02/03 15:16:06;;;;;;;9.70;7.40;;;7.90;99.90;;;;;;5032861;28;20485;-67
2022/02/03 15:18:31;;;;;;;11.88;6.85;;;8.00;99.90;;;;;;5032441;28;20048;-67
2022/02/03 15:20:57;;;;;;;10.52;6.75;;;8.00;99.90;;;;;;5035049;28;20393;-67
2022/02/03 15:23:24;;;;;;;10.73;6.95;;;7.90;99.90;;;;;;5036903;28;20116;-67
2022/02/03 15:25:50;;;;;;;8.57;6.50;;;7.90;99.90;;;;;;5036199;28;20550;-67
2022/02/03 15:28:17;;;;;;;11.50;7.32;;;7.80;99.90;;;;;;5035408;28;20121;-67
2022/02/03 15:30:43;;;;;;;9.25;6.95;;;7.80;99.90;;;;;;5036561;28;20041;-67
2022/02/03 15:33:09;;;;;;;11.43;6.88;;;7.80;99.90;;;;;;5036848;28;20052;-66
2022/02/03 15:35:42;;;;;;;10.15;6.90;;;7.80;99.90;;;;;;5036191;28;20041;-67
2022/02/03 15:38:12;;;;;;;10.95;7.78;;;7.80;99.90;;;;;;5035859;28;20042;-66
2022/02/03 15:40:39;;;;;;;13.88;10.23;;;7.80;99.90;;;;;;5036236;28;20060;-67
2022/02/03 15:43:08;;;;;;;14.80;9.52;;;7.80;99.90;;;;;;5035139;28;20053;-66
2022/02/03 15:45:41;;;;;;;13.25;9.43;;;7.80;99.90;;;;;;5035959;28;20042;-66
2022/02/03 15:48:29;;;;;;;18.13;11.77;;;7.80;99.90;;;;;;5035796;28;20045;-67
2022/02/03 16:04:06;;;;;;;15.95;9.85;;;7.80;99.90;;;;;;5032747;28;20045;-66
2022/02/03 16:17:29;;;;;;;22.13;14.60;;;7.80;99.90;;;;;;5033827;28;20050;-67
2022/02/03 16:20:08;;;;;;;24.30;13.38;;;7.80;99.90;;;;;;5035193;28;20049;-66
2022/02/03 16:22:44;;;;;;;21.13;12.93;;;7.70;99.90;;;;;;5035014;28;20457;-66
2022/02/03 16:25:25;;;;;;;20.13;13.38;;;7.70;99.90;;;;;;5035533;28;20397;-66
2022/02/03 16:54:51;;;;;;;22.83;15.90;;;7.50;99.90;;;;;;5033429;28;20126;-67
2022/02/03 16:57:21;;;;;;;25.98;16.00;;;7.50;99.90;;;;;;5034781;28;20374;-66
2022/02/03 16:59:59;;;;;;;28.42;17.83;;;7.40;99.90;;;;;;5034787;28;20045;-66
2022/02/03 17:02:25;;;;;;;23.88;16.58;;;7.40;99.90;;;;;;5034166;28;20481;-66
2022/02/03 17:04:56;;;;;;;26.40;16.48;;;7.50;99.90;;;;;;5035195;28;20044;-66
2022/02/03 17:07:22;;;;;;;26.85;17.45;;;7.50;99.90;;;;;;5032992;28;20056;-66
2022/02/03 17:09:49;;;;;;;29.88;16.35;;;7.50;99.90;;;;;;5033221;28;20124;-66
2022/02/03 17:12:16;;;;;;;25.42;16.05;;;7.40;99.90;;;;;;5034950;28;20456;-66
2022/02/03 17:14:41;;;;;;;26.60;16.67;;;7.50;99.90;;;;;;5034934;28;20037;-66
2022/02/03 17:17:07;;;;;;;26.92;16.85;;;7.50;99.90;;;;;;5034598;28;20397;-65
2022/02/03 17:19:33;;;;;;;29.48;16.85;;;7.40;99.90;;;;;;5034023;28;20034;-66
2022/02/03 17:21:58;;;;;;;26.08;17.05;;;7.40;99.90;;;;;;5034445;28;20099;-67
2022/02/03 17:24:25;;;;;;;24.10;15.45;;;7.40;99.90;;;;;;5034625;28;20377;-66
2022/02/03 17:26:59;;;;;;;25.95;16.23;;;7.40;99.90;;;;;;5034802;28;20037;-66
2022/02/03 17:29:37;;;;;;;32.42;16.70;;;7.40;99.90;;;;;;5034020;28;20045;-66
2022/02/03 18:07:57;;;;;;;32.17;18.63;;;7.40;99.90;;;;;;5032206;28;20045;-66
2022/02/03 18:10:26;;;;;;;32.92;18.45;;;7.40;99.90;;;;;;5019634;28;20046;-66
2022/02/03 18:29:40;;;;;;;27.33;16.98;;;7.40;99.90;;;;;;5031955;28;20091;-66
2022/02/03 18:32:35;;;;;;;30.90;17.55;;;7.40;99.90;;;;;;5032969;28;20041;-66
2022/02/03 18:35:08;;;;;;;27.58;16.55;;;7.30;99.90;;;;;;5031924;28;20049;-66
2022/02/03 18:45:50;;;;;;;30.75;17.38;;;7.40;99.90;;;;;;5031668;28;20045;-66
2022/02/03 18:50:57;;;;;;;30.48;18.17;;;7.40;99.90;;;;;;5032149;28;20576;-66
2022/02/03 18:53:32;;;;;;;34.95;19.38;;;7.40;99.90;;;;;;5033554;28;20045;-66
2022/02/03 18:56:13;;;;;;;34.40;19.08;;;7.40;99.90;;;;;;5036237;28;20045;-66
2022/02/03 18:59:33;;;;;;;31.85;18.17;;;7.30;99.90;;;;;;5031273;28;20038;-66
2022/02/03 20:06:17;;;;;;;39.17;19.70;;;7.40;99.90;;;;;;5035265;28;20045;-68
2022/02/03 20:08:53;;;;;;;35.72;20.88;;;7.40;99.90;;;;;;5033997;28;20056;-68
2022/02/03 20:11:27;;;;;;;37.58;20.63;;;7.40;99.90;;;;;;5034783;28;20125;-68
2022/02/03 20:13:56;;;;;;;36.67;20.05;;;7.40;99.90;;;;;;5035808;28;20072;-68
2022/02/03 20:16:23;;;;;;;36.97;20.33;;;7.30;99.90;;;;;;5034121;28;20116;-68
2022/02/03 20:18:49;;;;;;;45.25;22.05;;;7.40;99.90;;;;;;5035064;28;20041;-67
2022/02/03 20:21:16;;;;;;;42.38;21.38;;;7.40;99.90;;;;;;5035521;28;20040;-68
2022/02/03 20:23:43;;;;;;;39.67;21.80;;;7.40;99.90;;;;;;5035377;28;20033;-68
2022/02/03 20:26:12;;;;;;;43.50;21.00;;;7.40;99.90;;;;;;5035631;28;20029;-67
2022/02/03 20:28:38;;;;;;;45.15;22.58;;;7.40;99.90;;;;;;5035357;28;20481;-67
2022/02/03 20:31:04;;;;;;;46.15;22.90;;;7.40;99.90;;;;;;5035210;28;20397;-67
2022/02/03 20:33:30;;;;;;;50.75;22.70;;;7.40;99.90;;;;;;5018497;28;20048;-67
2022/02/03 20:35:56;;;;;;;43.10;22.85;;;7.40;99.90;;;;;;5034848;28;20523;-67
2022/02/03 20:38:22;;;;;;;53.08;24.90;;;7.50;99.90;;;;;;5034761;28;20496;-67
2022/02/03 20:40:49;;;;;;;50.38;24.88;;;7.50;99.90;;;;;;5033928;28;20045;-67
2022/02/03 20:43:17;;;;;;;47.97;23.63;;;7.50;99.90;;;;;;5035639;28;20064;-67
2022/02/03 20:45:44;;;;;;;45.15;23.02;;;7.50;99.90;;;;;;5034896;28;20040;-68
2022/02/03 20:48:10;;;;;;;49.13;22.90;;;7.50;99.90;;;;;;5033855;28;20176;-68
2022/02/03 20:50:37;;;;;;;40.42;23.63;;;7.50;99.90;;;;;;5033924;28;20400;-67
2022/02/03 20:53:04;;;;;;;47.70;23.45;;;7.40;99.90;;;;;;5033539;28;20548;-68
2022/02/03 20:55:29;;;;;;;48.30;24.92;;;7.40;99.90;;;;;;5034910;28;20481;-67
2022/02/03 20:57:55;;;;;;;44.65;24.85;;;7.40;99.90;;;;;;5034781;28;20045;-67
2022/02/03 21:00:28;;;;;;;46.95;24.63;;;7.50;99.90;;;;;;5035587;28;20041;-67
2022/02/03 21:05:22;;;;;;;48.95;24.50;;;7.40;99.90;;;;;;5034668;28;20084;-68
2022/02/03 21:07:50;;;;;;;41.42;23.42;;;7.50;99.90;;;;;;5033429;28;20073;-68
2022/02/03 21:10:19;;;;;;;56.97;25.60;;;7.40;99.90;;;;;;5033792;28;20057;-68
2022/02/03 21:12:46;;;;;;;53.30;25.13;;;7.50;99.90;;;;;;5034543;28;20398;-67
2022/02/03 21:15:13;;;;;;;48.95;25.55;;;7.40;99.90;;;;;;5034756;28;20041;-68
2022/02/03 21:17:39;;;;;;;53.90;24.67;;;7.40;99.90;;;;;;5033600;28;20037;-68
2022/02/03 21:20:16;;;;;;;48.05;25.25;;;7.40;99.90;;;;;;5034457;28;20503;-68
2022/02/03 21:22:43;;;;;;;50.35;24.45;;;7.40;99.90;;;;;;5033642;28;20124;-68
2022/02/03 21:27:54;;;;;;;45.30;24.65;;;7.40;99.90;;;;;;5034157;28;20053;-67
2022/02/03 21:30:21;;;;;;;45.20;25.92;;;7.50;99.90;;;;;;5034686;28;20042;-67
2022/02/03 21:32:48;;;;;;;45.53;23.63;;;7.40;99.90;;;;;;5034677;28;20381;-68
2022/02/03 21:35:15;;;;;;;45.88;24.60;;;7.40;99.90;;;;;;5034076;28;20038;-68
2022/02/03 21:37:42;;;;;;;45.95;22.08;;;7.40;99.90;;;;;;5034044;28;20047;-67
2022/02/03 21:40:08;;;;;;;47.97;22.90;;;7.30;99.90;;;;;;5033833;28;20039;-68
2022/02/03 21:42:35;;;;;;;45.25;22.02;;;7.40;99.90;;;;;;5033328;28;20033;-68
2022/02/03 21:45:00;;;;;;;47.75;23.63;;;7.40;99.90;;;;;;5032007;28;20037;-67
2022/02/03 21:47:26;;;;;;;43.42;22.90;;;7.30;99.90;;;;;;5032310;28;20033;-67
2022/02/03 21:49:52;;;;;;;43.92;22.75;;;7.40;99.90;;;;;;5033236;28;20068;-67
2022/02/03 21:52:22;;;;;;;42.53;21.35;;;7.30;99.90;;;;;;5033317;28;20044;-67
2022/02/03 21:54:48;;;;;;;43.25;21.83;;;7.40;99.90;;;;;;5033020;28;20048;-67
2022/02/03 21:57:14;;;;;;;38.60;21.23;;;7.40;99.90;;;;;;5032720;28;20065;-68
2022/02/03 21:59:40;;;;;;;43.75;20.92;;;7.40;99.90;;;;;;5033429;28;20461;-68
2022/02/03 22:02:08;;;;;;;46.13;22.30;;;7.40;99.90;;;;;;5033730;28;20029;-68
2022/02/03 22:04:34;;;;;;;43.40;22.77;;;7.50;99.90;;;;;;5033417;28;20038;-68
2022/02/03 22:07:00;;;;;;;42.15;20.48;;;7.40;99.90;;;;;;5033469;28;20041;-68
2022/02/03 22:09:25;;;;;;;42.47;20.70;;;7.40;99.90;;;;;;5032594;28;20052;-68
2022/02/03 22:11:51;;;;;;;38.22;20.08;;;7.50;99.90;;;;;;5033648;28;20041;-67
2022/02/03 22:14:17;;;;;;;39.25;20.77;;;7.40;99.90;;;;;;5032832;28;20044;-68
2022/02/03 22:16:42;;;;;;;39.08;17.92;;;7.40;99.90;;;;;;5031906;28;20099;-67
2022/02/03 22:19:08;;;;;;;41.13;19.67;;;7.30;99.90;;;;;;5032339;28;20045;-68
2022/02/03 22:24:20;;;;;;;33.35;17.58;;;7.40;99.90;;;;;;5031640;28;20108;-67
2022/02/03 22:42:28;;;;;;;26.20;17.08;;;7.50;99.90;;;;;;5033217;28;20124;-68
2022/02/03 22:45:51;;;;;;;33.67;18.58;;;7.50;99.90;;;;;;5032034;28;20350;-68
2022/02/03 22:48:02;;;;;;;35.67;19.05;;;7.40;99.90;;;;;;5027467;28;20041;-67
2022/02/03 22:50:28;;;;;;;37.75;20.02;;;7.40;99.90;;;;;;5031911;28;20049;-68
2022/02/03 22:52:54;;;;;;;36.38;18.92;;;7.40;99.90;;;;;;5033757;28;20121;-68
2022/02/03 22:55:19;;;;;;;37.70;20.55;;;7.40;99.90;;;;;;5033198;28;20087;-68
2022/02/03 22:57:58;;;;;;;33.20;21.00;;;7.40;99.90;;;;;;5033110;28;20041;-68
2022/02/03 23:00:57;;;;;;;42.85;23.00;;;7.40;99.90;;;;;;5033778;28;20045;-68
2022/02/03 23:03:24;;;;;;;41.15;23.10;;;7.50;99.90;;;;;;5025403;28;20045;-68
2022/02/03 23:05:49;;;;;;;42.90;24.85;;;7.40;99.90;;;;;;5013417;28;20481;-68
2022/02/03 23:08:20;;;;;;;45.08;26.15;;;7.40;99.90;;;;;;5012762;28;20048;-67
2022/02/03 23:11:06;;;;;;;44.72;25.23;;;7.40;99.90;;;;;;5013965;28;20080;-67
2022/02/03 23:23:59;;;;;;;43.28;26.10;;;7.40;99.90;;;;;;5012452;28;20125;-68